Mmabatho, Mahikeng Mmabatho Airport (FAMM)

NameMahikeng Mmabatho Airport
CityMmabatho
CountrySouth Africa
ICAOFAMM
IATAMBD
Altitude1274 m
CoordinatesGoogle Map
Live Air TrafficLiveATC.net
METARFAMM 180100Z AUTO 04005KT //// // ////// 20/14 Q1015
2019-01-18 01:00:00 Wind: North-Northeast (40°) 2.57 m/s - Visibility: 400 m - Temperature: 20 °C - Dew point: 14 °C - Humidity: 68.5% - Pressure: 1015 hPa
Statistics

The table below shows the detailed information of all flights to/from Mmabatho, Mahikeng Mmabatho Airport (FAMM).